sensor_id;sensor_type;location;lat;lon;timestamp;P1;durP1;ratioP1;P2;durP2;ratioP2
44204;SDS011;30163;42.698;23.344;2023-07-13T00:00:10;27.05;;;9.27;;
44204;SDS011;30163;42.698;23.344;2023-07-13T00:02:36;24.60;;;9.60;;
44204;SDS011;30163;42.698;23.344;2023-07-13T00:05:02;25.08;;;9.25;;
44204;SDS011;30163;42.698;23.344;2023-07-13T00:07:28;25.85;;;9.88;;
44204;SDS011;30163;42.698;23.344;2023-07-13T00:09:53;26.23;;;9.23;;
44204;SDS011;30163;42.698;23.344;2023-07-13T00:12:29;24.15;;;9.60;;
44204;SDS011;30163;42.698;23.344;2023-07-13T00:14:59;26.30;;;10.02;;
44204;SDS011;30163;42.698;23.344;2023-07-13T00:17:26;18.42;;;9.90;;
44204;SDS011;30163;42.698;23.344;2023-07-13T00:19:52;15.52;;;8.88;;
44204;SDS011;30163;42.698;23.344;2023-07-13T00:22:19;21.70;;;9.35;;
44204;SDS011;30163;42.698;23.344;2023-07-13T00:24:44;23.58;;;9.77;;
44204;SDS011;30163;42.698;23.344;2023-07-13T00:27:10;18.35;;;9.80;;
44204;SDS011;30163;42.698;23.344;2023-07-13T00:29:36;18.23;;;9.30;;
44204;SDS011;30163;42.698;23.344;2023-07-13T00:32:02;27.05;;;9.90;;
44204;SDS011;30163;42.698;23.344;2023-07-13T00:34:29;22.25;;;10.10;;
44204;SDS011;30163;42.698;23.344;2023-07-13T00:36:54;17.67;;;9.85;;
44204;SDS011;30163;42.698;23.344;2023-07-13T00:39:19;17.73;;;9.75;;
44204;SDS011;30163;42.698;23.344;2023-07-13T00:41:46;25.77;;;10.95;;
44204;SDS011;30163;42.698;23.344;2023-07-13T00:44:14;22.55;;;11.05;;
44204;SDS011;30163;42.698;23.344;2023-07-13T00:46:40;24.95;;;9.43;;
44204;SDS011;30163;42.698;23.344;2023-07-13T00:49:07;15.02;;;10.45;;
44204;SDS011;30163;42.698;23.344;2023-07-13T00:51:40;15.80;;;10.73;;
44204;SDS011;30163;42.698;23.344;2023-07-13T00:54:26;17.00;;;10.85;;
44204;SDS011;30163;42.698;23.344;2023-07-13T00:56:55;18.48;;;10.57;;
44204;SDS011;30163;42.698;23.344;2023-07-13T00:59:23;25.65;;;11.25;;
44204;SDS011;30163;42.698;23.344;2023-07-13T01:01:49;24.83;;;10.70;;
44204;SDS011;30163;42.698;23.344;2023-07-13T01:04:14;23.75;;;11.52;;
44204;SDS011;30163;42.698;23.344;2023-07-13T01:06:40;22.50;;;11.50;;
44204;SDS011;30163;42.698;23.344;2023-07-13T01:09:09;22.13;;;10.60;;
44204;SDS011;30163;42.698;23.344;2023-07-13T01:11:35;18.27;;;11.27;;
44204;SDS011;30163;42.698;23.344;2023-07-13T01:14:00;21.92;;;11.65;;
44204;SDS011;30163;42.698;23.344;2023-07-13T01:16:27;24.25;;;12.02;;
44204;SDS011;30163;42.698;23.344;2023-07-13T01:18:55;19.83;;;11.63;;
44204;SDS011;30163;42.698;23.344;2023-07-13T01:21:24;29.17;;;11.30;;
44204;SDS011;30163;42.698;23.344;2023-07-13T01:23:50;21.35;;;11.70;;
44204;SDS011;30163;42.698;23.344;2023-07-13T01:26:15;19.73;;;12.10;;
44204;SDS011;30163;42.698;23.344;2023-07-13T01:28:41;22.33;;;11.15;;
44204;SDS011;30163;42.698;23.344;2023-07-13T01:31:06;22.20;;;11.63;;
44204;SDS011;30163;42.698;23.344;2023-07-13T01:33:33;22.42;;;11.38;;
44204;SDS011;30163;42.698;23.344;2023-07-13T01:35:59;22.10;;;11.00;;
44204;SDS011;30163;42.698;23.344;2023-07-13T01:38:25;18.08;;;11.77;;
44204;SDS011;30163;42.698;23.344;2023-07-13T01:40:51;25.75;;;12.35;;
44204;SDS011;30163;42.698;23.344;2023-07-13T01:43:17;34.20;;;13.88;;
44204;SDS011;30163;42.698;23.344;2023-07-13T01:45:43;16.40;;;11.25;;
44204;SDS011;30163;42.698;23.344;2023-07-13T01:48:09;27.73;;;11.95;;
44204;SDS011;30163;42.698;23.344;2023-07-13T01:50:35;32.70;;;11.88;;
44204;SDS011;30163;42.698;23.344;2023-07-13T01:53:00;26.55;;;12.55;;
44204;SDS011;30163;42.698;23.344;2023-07-13T01:55:27;20.17;;;12.13;;
44204;SDS011;30163;42.698;23.344;2023-07-13T01:57:53;22.98;;;11.70;;
44204;SDS011;30163;42.698;23.344;2023-07-13T02:00:18;29.73;;;13.43;;
44204;SDS011;30163;42.698;23.344;2023-07-13T02:02:44;23.20;;;12.18;;
44204;SDS011;30163;42.698;23.344;2023-07-13T02:05:10;24.80;;;12.60;;
44204;SDS011;30163;42.698;23.344;2023-07-13T02:07:35;17.55;;;12.07;;
44204;SDS011;30163;42.698;23.344;2023-07-13T02:10:01;29.40;;;13.30;;
44204;SDS011;30163;42.698;23.344;2023-07-13T02:12:26;21.67;;;12.00;;
44204;SDS011;30163;42.698;23.344;2023-07-13T02:14:51;32.10;;;13.00;;
44204;SDS011;30163;42.698;23.344;2023-07-13T02:17:17;21.90;;;12.23;;
44204;SDS011;30163;42.698;23.344;2023-07-13T02:19:42;21.42;;;12.38;;
44204;SDS011;30163;42.698;23.344;2023-07-13T02:22:08;20.52;;;12.90;;
44204;SDS011;30163;42.698;23.344;2023-07-13T02:24:33;26.02;;;11.90;;
44204;SDS011;30163;42.698;23.344;2023-07-13T02:26:58;24.02;;;12.20;;
44204;SDS011;30163;42.698;23.344;2023-07-13T02:29:24;23.00;;;12.13;;
44204;SDS011;30163;42.698;23.344;2023-07-13T02:31:49;23.30;;;11.32;;
44204;SDS011;30163;42.698;23.344;2023-07-13T02:34:15;19.67;;;13.23;;
44204;SDS011;30163;42.698;23.344;2023-07-13T02:36:40;21.45;;;12.18;;
44204;SDS011;30163;42.698;23.344;2023-07-13T02:39:06;23.90;;;11.93;;
44204;SDS011;30163;42.698;23.344;2023-07-13T02:41:31;31.50;;;12.15;;
44204;SDS011;30163;42.698;23.344;2023-07-13T02:44:00;18.63;;;12.32;;
44204;SDS011;30163;42.698;23.344;2023-07-13T02:46:30;24.40;;;12.00;;
44204;SDS011;30163;42.698;23.344;2023-07-13T02:48:56;32.08;;;12.18;;
44204;SDS011;30163;42.698;23.344;2023-07-13T02:51:22;30.25;;;12.80;;
44204;SDS011;30163;42.698;23.344;2023-07-13T02:53:47;21.40;;;12.88;;
44204;SDS011;30163;42.698;23.344;2023-07-13T02:56:12;20.52;;;12.35;;
44204;SDS011;30163;42.698;23.344;2023-07-13T02:58:38;23.80;;;13.00;;
44204;SDS011;30163;42.698;23.344;2023-07-13T03:01:10;21.25;;;12.48;;
44204;SDS011;30163;42.698;23.344;2023-07-13T03:03:36;25.17;;;12.45;;
44204;SDS011;30163;42.698;23.344;2023-07-13T03:06:02;24.08;;;12.80;;
44204;SDS011;30163;42.698;23.344;2023-07-13T03:08:30;22.90;;;12.10;;
44204;SDS011;30163;42.698;23.344;2023-07-13T03:11:03;25.63;;;11.48;;
44204;SDS011;30163;42.698;23.344;2023-07-13T03:13:33;37.50;;;12.85;;
44204;SDS011;30163;42.698;23.344;2023-07-13T03:15:58;17.95;;;12.25;;
44204;SDS011;30163;42.698;23.344;2023-07-13T03:18:25;16.60;;;11.93;;
44204;SDS011;30163;42.698;23.344;2023-07-13T03:20:51;19.30;;;11.85;;
44204;SDS011;30163;42.698;23.344;2023-07-13T03:23:17;24.25;;;12.48;;
44204;SDS011;30163;42.698;23.344;2023-07-13T03:25:43;16.60;;;11.02;;
44204;SDS011;30163;42.698;23.344;2023-07-13T03:28:10;20.83;;;11.02;;
44204;SDS011;30163;42.698;23.344;2023-07-13T03:30:36;22.52;;;11.60;;
44204;SDS011;30163;42.698;23.344;2023-07-13T03:33:01;16.40;;;10.35;;
44204;SDS011;30163;42.698;23.344;2023-07-13T03:35:27;24.58;;;11.07;;
44204;SDS011;30163;42.698;23.344;2023-07-13T03:37:52;24.73;;;11.63;;
44204;SDS011;30163;42.698;23.344;2023-07-13T03:40:17;24.60;;;11.45;;
44204;SDS011;30163;42.698;23.344;2023-07-13T03:42:43;24.98;;;10.88;;
44204;SDS011;30163;42.698;23.344;2023-07-13T03:45:08;31.65;;;12.27;;
44204;SDS011;30163;42.698;23.344;2023-07-13T03:47:34;22.77;;;11.23;;
44204;SDS011;30163;42.698;23.344;2023-07-13T03:49:59;22.02;;;10.75;;
44204;SDS011;30163;42.698;23.344;2023-07-13T03:52:25;22.35;;;10.88;;
44204;SDS011;30163;42.698;23.344;2023-07-13T03:54:50;35.28;;;11.00;;
44204;SDS011;30163;42.698;23.344;2023-07-13T03:57:15;17.05;;;10.45;;
44204;SDS011;30163;42.698;23.344;2023-07-13T03:59:41;16.40;;;9.95;;
44204;SDS011;30163;42.698;23.344;2023-07-13T04:02:06;19.73;;;10.23;;
44204;SDS011;30163;42.698;23.344;2023-07-13T04:04:32;16.80;;;10.02;;
44204;SDS011;30163;42.698;23.344;2023-07-13T04:06:57;25.25;;;10.40;;
44204;SDS011;30163;42.698;23.344;2023-07-13T04:09:23;20.73;;;9.88;;
44204;SDS011;30163;42.698;23.344;2023-07-13T04:11:49;16.80;;;9.20;;
44204;SDS011;30163;42.698;23.344;2023-07-13T04:14:15;12.88;;;8.90;;
44204;SDS011;30163;42.698;23.344;2023-07-13T04:16:40;19.35;;;10.02;;
44204;SDS011;30163;42.698;23.344;2023-07-13T04:19:06;25.92;;;10.45;;
44204;SDS011;30163;42.698;23.344;2023-07-13T04:21:31;20.60;;;10.25;;
44204;SDS011;30163;42.698;23.344;2023-07-13T04:23:57;19.40;;;11.02;;
44204;SDS011;30163;42.698;23.344;2023-07-13T04:26:23;21.27;;;11.43;;
44204;SDS011;30163;42.698;23.344;2023-07-13T04:28:49;21.52;;;11.07;;
44204;SDS011;30163;42.698;23.344;2023-07-13T04:31:15;20.02;;;11.00;;
44204;SDS011;30163;42.698;23.344;2023-07-13T04:33:41;20.13;;;11.68;;
44204;SDS011;30163;42.698;23.344;2023-07-13T04:36:08;23.42;;;12.23;;
44204;SDS011;30163;42.698;23.344;2023-07-13T04:38:34;24.10;;;11.23;;
44204;SDS011;30163;42.698;23.344;2023-07-13T04:41:01;46.10;;;12.75;;
44204;SDS011;30163;42.698;23.344;2023-07-13T04:43:28;26.73;;;11.45;;
44204;SDS011;30163;42.698;23.344;2023-07-13T04:45:54;28.27;;;12.82;;
44204;SDS011;30163;42.698;23.344;2023-07-13T04:48:20;30.05;;;12.55;;
44204;SDS011;30163;42.698;23.344;2023-07-13T04:50:46;20.00;;;11.50;;
44204;SDS011;30163;42.698;23.344;2023-07-13T04:53:12;23.95;;;11.90;;
44204;SDS011;30163;42.698;23.344;2023-07-13T04:55:37;20.30;;;11.98;;
44204;SDS011;30163;42.698;23.344;2023-07-13T04:58:03;20.67;;;12.05;;
44204;SDS011;30163;42.698;23.344;2023-07-13T05:00:29;19.77;;;12.55;;
44204;SDS011;30163;42.698;23.344;2023-07-13T05:02:55;32.67;;;13.60;;
44204;SDS011;30163;42.698;23.344;2023-07-13T05:05:22;25.52;;;13.82;;
44204;SDS011;30163;42.698;23.344;2023-07-13T05:07:48;25.85;;;13.25;;
44204;SDS011;30163;42.698;23.344;2023-07-13T05:10:13;29.10;;;13.02;;
44204;SDS011;30163;42.698;23.344;2023-07-13T05:12:39;27.20;;;13.10;;
44204;SDS011;30163;42.698;23.344;2023-07-13T05:15:04;34.45;;;14.00;;
44204;SDS011;30163;42.698;23.344;2023-07-13T05:17:30;26.88;;;12.55;;
44204;SDS011;30163;42.698;23.344;2023-07-13T05:19:56;20.45;;;12.25;;
44204;SDS011;30163;42.698;23.344;2023-07-13T05:22:21;24.92;;;12.73;;
44204;SDS011;30163;42.698;23.344;2023-07-13T05:24:46;39.78;;;13.25;;
44204;SDS011;30163;42.698;23.344;2023-07-13T05:27:12;37.05;;;12.38;;
44204;SDS011;30163;42.698;23.344;2023-07-13T05:29:37;26.42;;;12.05;;
44204;SDS011;30163;42.698;23.344;2023-07-13T05:32:03;28.40;;;12.60;;
44204;SDS011;30163;42.698;23.344;2023-07-13T05:34:29;29.63;;;13.40;;
44204;SDS011;30163;42.698;23.344;2023-07-13T05:36:54;22.38;;;13.55;;
44204;SDS011;30163;42.698;23.344;2023-07-13T05:39:20;30.75;;;12.32;;
44204;SDS011;30163;42.698;23.344;2023-07-13T05:41:45;28.65;;;12.05;;
44204;SDS011;30163;42.698;23.344;2023-07-13T05:44:11;31.75;;;12.15;;
44204;SDS011;30163;42.698;23.344;2023-07-13T05:46:36;28.00;;;13.48;;
44204;SDS011;30163;42.698;23.344;2023-07-13T05:49:02;26.15;;;12.25;;
44204;SDS011;30163;42.698;23.344;2023-07-13T05:51:28;33.85;;;13.93;;
44204;SDS011;30163;42.698;23.344;2023-07-13T05:53:53;31.38;;;13.13;;
44204;SDS011;30163;42.698;23.344;2023-07-13T05:56:19;24.10;;;13.15;;
44204;SDS011;30163;42.698;23.344;2023-07-13T05:58:44;19.02;;;12.30;;
44204;SDS011;30163;42.698;23.344;2023-07-13T06:01:12;32.45;;;13.30;;
44204;SDS011;30163;42.698;23.344;2023-07-13T06:03:38;30.02;;;13.88;;
44204;SDS011;30163;42.698;23.344;2023-07-13T06:06:04;31.50;;;12.95;;
44204;SDS011;30163;42.698;23.344;2023-07-13T06:08:30;26.88;;;12.77;;
44204;SDS011;30163;42.698;23.344;2023-07-13T06:11:18;30.55;;;12.10;;
44204;SDS011;30163;42.698;23.344;2023-07-13T06:13:46;23.10;;;12.27;;
44204;SDS011;30163;42.698;23.344;2023-07-13T06:16:12;23.85;;;11.85;;
44204;SDS011;30163;42.698;23.344;2023-07-13T06:18:38;23.25;;;11.27;;
44204;SDS011;30163;42.698;23.344;2023-07-13T06:21:12;24.45;;;12.23;;
44204;SDS011;30163;42.698;23.344;2023-07-13T06:23:39;35.45;;;14.23;;
44204;SDS011;30163;42.698;23.344;2023-07-13T06:26:04;33.15;;;12.75;;
44204;SDS011;30163;42.698;23.344;2023-07-13T06:28:31;27.13;;;13.48;;
44204;SDS011;30163;42.698;23.344;2023-07-13T06:30:57;20.35;;;13.38;;
44204;SDS011;30163;42.698;23.344;2023-07-13T06:33:23;36.60;;;14.32;;
44204;SDS011;30163;42.698;23.344;2023-07-13T06:35:48;27.08;;;14.73;;
44204;SDS011;30163;42.698;23.344;2023-07-13T06:38:14;30.13;;;14.10;;
44204;SDS011;30163;42.698;23.344;2023-07-13T06:40:39;28.75;;;12.82;;
44204;SDS011;30163;42.698;23.344;2023-07-13T06:43:04;33.75;;;13.85;;
44204;SDS011;30163;42.698;23.344;2023-07-13T06:45:30;24.63;;;12.80;;
44204;SDS011;30163;42.698;23.344;2023-07-13T06:47:55;28.13;;;11.85;;
44204;SDS011;30163;42.698;23.344;2023-07-13T06:50:21;31.70;;;12.48;;
44204;SDS011;30163;42.698;23.344;2023-07-13T06:52:46;28.92;;;12.65;;
44204;SDS011;30163;42.698;23.344;2023-07-13T06:55:11;23.90;;;11.65;;
44204;SDS011;30163;42.698;23.344;2023-07-13T06:57:37;17.55;;;10.65;;
44204;SDS011;30163;42.698;23.344;2023-07-13T07:00:02;22.02;;;12.50;;
44204;SDS011;30163;42.698;23.344;2023-07-13T07:02:28;28.75;;;11.48;;
44204;SDS011;30163;42.698;23.344;2023-07-13T07:04:53;21.85;;;11.93;;
44204;SDS011;30163;42.698;23.344;2023-07-13T07:07:19;23.95;;;12.43;;
44204;SDS011;30163;42.698;23.344;2023-07-13T07:09:44;23.80;;;10.45;;
44204;SDS011;30163;42.698;23.344;2023-07-13T07:12:10;23.67;;;11.50;;
44204;SDS011;30163;42.698;23.344;2023-07-13T07:14:35;21.20;;;11.65;;
44204;SDS011;30163;42.698;23.344;2023-07-13T07:17:00;24.35;;;11.60;;
44204;SDS011;30163;42.698;23.344;2023-07-13T07:19:27;27.50;;;12.02;;
44204;SDS011;30163;42.698;23.344;2023-07-13T07:21:54;26.67;;;10.93;;
44204;SDS011;30163;42.698;23.344;2023-07-13T07:24:19;29.65;;;11.32;;
44204;SDS011;30163;42.698;23.344;2023-07-13T07:26:44;28.88;;;11.93;;
44204;SDS011;30163;42.698;23.344;2023-07-13T07:29:10;21.27;;;10.23;;
44204;SDS011;30163;42.698;23.344;2023-07-13T07:31:35;21.35;;;10.45;;
44204;SDS011;30163;42.698;23.344;2023-07-13T07:34:02;18.58;;;10.90;;
44204;SDS011;30163;42.698;23.344;2023-07-13T07:36:27;20.42;;;10.07;;
44204;SDS011;30163;42.698;23.344;2023-07-13T07:38:53;26.40;;;10.30;;
44204;SDS011;30163;42.698;23.344;2023-07-13T07:41:18;23.02;;;10.85;;
44204;SDS011;30163;42.698;23.344;2023-07-13T07:43:44;22.50;;;10.77;;
44204;SDS011;30163;42.698;23.344;2023-07-13T07:46:09;28.20;;;10.20;;
44204;SDS011;30163;42.698;23.344;2023-07-13T07:48:34;25.73;;;10.40;;
44204;SDS011;30163;42.698;23.344;2023-07-13T07:51:00;23.90;;;9.57;;
44204;SDS011;30163;42.698;23.344;2023-07-13T07:53:25;20.77;;;9.27;;
44204;SDS011;30163;42.698;23.344;2023-07-13T07:55:51;22.23;;;10.38;;
44204;SDS011;30163;42.698;23.344;2023-07-13T07:58:16;24.63;;;10.60;;
44204;SDS011;30163;42.698;23.344;2023-07-13T08:00:42;17.60;;;9.32;;
44204;SDS011;30163;42.698;23.344;2023-07-13T08:03:07;23.77;;;9.88;;
44204;SDS011;30163;42.698;23.344;2023-07-13T08:05:34;24.75;;;9.00;;
44204;SDS011;30163;42.698;23.344;2023-07-13T08:08:01;21.23;;;9.68;;
44204;SDS011;30163;42.698;23.344;2023-07-13T08:10:26;21.50;;;9.60;;
44204;SDS011;30163;42.698;23.344;2023-07-13T08:12:52;17.20;;;9.18;;
44204;SDS011;30163;42.698;23.344;2023-07-13T08:15:17;18.85;;;8.52;;
44204;SDS011;30163;42.698;23.344;2023-07-13T08:17:45;21.23;;;10.32;;
44204;SDS011;30163;42.698;23.344;2023-07-13T08:20:11;20.33;;;9.63;;
44204;SDS011;30163;42.698;23.344;2023-07-13T08:22:36;21.67;;;9.68;;
44204;SDS011;30163;42.698;23.344;2023-07-13T08:25:02;20.52;;;9.50;;
44204;SDS011;30163;42.698;23.344;2023-07-13T08:27:28;29.10;;;9.70;;
44204;SDS011;30163;42.698;23.344;2023-07-13T08:29:54;19.77;;;9.27;;
44204;SDS011;30163;42.698;23.344;2023-07-13T08:32:19;35.40;;;8.63;;
44204;SDS011;30163;42.698;23.344;2023-07-13T08:34:46;17.35;;;8.35;;
44204;SDS011;30163;42.698;23.344;2023-07-13T08:37:12;16.23;;;8.35;;
44204;SDS011;30163;42.698;23.344;2023-07-13T08:39:38;23.48;;;10.45;;
44204;SDS011;30163;42.698;23.344;2023-07-13T08:42:22;16.90;;;8.55;;
44204;SDS011;30163;42.698;23.344;2023-07-13T08:44:57;17.40;;;9.30;;
44204;SDS011;30163;42.698;23.344;2023-07-13T08:47:26;14.80;;;8.77;;
44204;SDS011;30163;42.698;23.344;2023-07-13T08:49:53;30.67;;;9.10;;
44204;SDS011;30163;42.698;23.344;2023-07-13T08:54:50;20.33;;;9.93;;
44204;SDS011;30163;42.698;23.344;2023-07-13T08:57:17;20.13;;;8.57;;
44204;SDS011;30163;42.698;23.344;2023-07-13T08:59:45;19.73;;;9.57;;
44204;SDS011;30163;42.698;23.344;2023-07-13T09:02:26;16.63;;;9.23;;
44204;SDS011;30163;42.698;23.344;2023-07-13T09:04:58;25.83;;;9.32;;
44204;SDS011;30163;42.698;23.344;2023-07-13T09:07:44;19.08;;;9.25;;
44204;SDS011;30163;42.698;23.344;2023-07-13T09:10:26;17.63;;;9.43;;
44204;SDS011;30163;42.698;23.344;2023-07-13T09:15:57;17.83;;;10.68;;
44204;SDS011;30163;42.698;23.344;2023-07-13T09:18:34;24.23;;;10.43;;
44204;SDS011;30163;42.698;23.344;2023-07-13T09:21:07;21.38;;;10.10;;
44204;SDS011;30163;42.698;23.344;2023-07-13T09:23:38;24.65;;;10.05;;
44204;SDS011;30163;42.698;23.344;2023-07-13T09:26:17;20.88;;;10.07;;
44204;SDS011;30163;42.698;23.344;2023-07-13T09:28:44;18.02;;;9.82;;
44204;SDS011;30163;42.698;23.344;2023-07-13T09:31:12;25.48;;;9.82;;
44204;SDS011;30163;42.698;23.344;2023-07-13T09:33:41;18.83;;;10.05;;
44204;SDS011;30163;42.698;23.344;2023-07-13T09:36:23;25.02;;;10.55;;
44204;SDS011;30163;42.698;23.344;2023-07-13T09:38:54;26.40;;;10.25;;
44204;SDS011;30163;42.698;23.344;2023-07-13T09:41:28;21.05;;;9.75;;
44204;SDS011;30163;42.698;23.344;2023-07-13T09:44:16;18.15;;;10.02;;
44204;SDS011;30163;42.698;23.344;2023-07-13T09:46:47;26.20;;;9.48;;
44204;SDS011;30163;42.698;23.344;2023-07-13T09:49:17;21.23;;;9.02;;
44204;SDS011;30163;42.698;23.344;2023-07-13T09:51:43;17.58;;;9.63;;
44204;SDS011;30163;42.698;23.344;2023-07-13T09:54:19;17.67;;;9.70;;
44204;SDS011;30163;42.698;23.344;2023-07-13T09:56:45;20.23;;;8.88;;
44204;SDS011;30163;42.698;23.344;2023-07-13T09:59:21;23.83;;;8.73;;
44204;SDS011;30163;42.698;23.344;2023-07-13T10:01:49;18.88;;;8.57;;
44204;SDS011;30163;42.698;23.344;2023-07-13T10:04:17;24.73;;;9.90;;
44204;SDS011;30163;42.698;23.344;2023-07-13T10:06:44;30.60;;;9.95;;
44204;SDS011;30163;42.698;23.344;2023-07-13T10:09:10;24.67;;;11.40;;
44204;SDS011;30163;42.698;23.344;2023-07-13T10:11:40;21.67;;;8.45;;
44204;SDS011;30163;42.698;23.344;2023-07-13T10:14:10;20.38;;;7.95;;
44204;SDS011;30163;42.698;23.344;2023-07-13T10:16:42;14.88;;;7.05;;
44204;SDS011;30163;42.698;23.344;2023-07-13T10:19:16;26.63;;;9.02;;
44204;SDS011;30163;42.698;23.344;2023-07-13T10:24:27;16.77;;;5.90;;
44204;SDS011;30163;42.698;23.344;2023-07-13T10:29:44;17.88;;;5.90;;
44204;SDS011;30163;42.698;23.344;2023-07-13T10:32:12;12.25;;;5.85;;
44204;SDS011;30163;42.698;23.344;2023-07-13T10:34:37;10.73;;;6.60;;
44204;SDS011;30163;42.698;23.344;2023-07-13T10:37:05;9.55;;;5.20;;
44204;SDS011;30163;42.698;23.344;2023-07-13T10:39:30;15.13;;;5.38;;
44204;SDS011;30163;42.698;23.344;2023-07-13T10:42:03;16.23;;;6.13;;
44204;SDS011;30163;42.698;23.344;2023-07-13T10:44:32;15.32;;;5.93;;
44204;SDS011;30163;42.698;23.344;2023-07-13T10:46:58;12.98;;;5.50;;
44204;SDS011;30163;42.698;23.344;2023-07-13T10:49:30;10.20;;;5.47;;
44204;SDS011;30163;42.698;23.344;2023-07-13T10:55:05;17.27;;;6.22;;
44204;SDS011;30163;42.698;23.344;2023-07-13T10:57:32;8.40;;;5.30;;
44204;SDS011;30163;42.698;23.344;2023-07-13T11:00:14;20.00;;;4.75;;
44204;SDS011;30163;42.698;23.344;2023-07-13T11:02:42;13.15;;;6.50;;
44204;SDS011;30163;42.698;23.344;2023-07-13T11:07:56;17.85;;;5.85;;
44204;SDS011;30163;42.698;23.344;2023-07-13T11:10:49;13.45;;;6.13;;
44204;SDS011;30163;42.698;23.344;2023-07-13T11:18:50;12.30;;;5.63;;
44204;SDS011;30163;42.698;23.344;2023-07-13T11:21:26;14.60;;;5.85;;
44204;SDS011;30163;42.698;23.344;2023-07-13T11:23:54;10.38;;;5.50;;
44204;SDS011;30163;42.698;23.344;2023-07-13T11:26:59;11.45;;;5.70;;
44204;SDS011;30163;42.698;23.344;2023-07-13T11:29:24;19.25;;;6.07;;
44204;SDS011;30163;42.698;23.344;2023-07-13T11:31:57;19.45;;;6.38;;
44204;SDS011;30163;42.698;23.344;2023-07-13T11:34:28;14.23;;;5.57;;
44204;SDS011;30163;42.698;23.344;2023-07-13T11:36:56;12.20;;;5.10;;
44204;SDS011;30163;42.698;23.344;2023-07-13T11:41:56;17.35;;;6.35;;
44204;SDS011;30163;42.698;23.344;2023-07-13T11:44:24;14.55;;;5.35;;
44204;SDS011;30163;42.698;23.344;2023-07-13T11:46:55;19.08;;;5.50;;
44204;SDS011;30163;42.698;23.344;2023-07-13T11:49:23;12.27;;;5.93;;
44204;SDS011;30163;42.698;23.344;2023-07-13T11:51:49;18.92;;;6.28;;
44204;SDS011;30163;42.698;23.344;2023-07-13T11:56:55;25.42;;;6.07;;
44204;SDS011;30163;42.698;23.344;2023-07-13T11:59:25;9.35;;;5.18;;
44204;SDS011;30163;42.698;23.344;2023-07-13T12:01:51;15.15;;;6.03;;
44204;SDS011;30163;42.698;23.344;2023-07-13T12:04:22;22.50;;;5.70;;
44204;SDS011;30163;42.698;23.344;2023-07-13T12:06:54;12.57;;;5.93;;
44204;SDS011;30163;42.698;23.344;2023-07-13T12:09:20;14.27;;;6.38;;
44204;SDS011;30163;42.698;23.344;2023-07-13T12:11:50;12.93;;;5.82;;
44204;SDS011;30163;42.698;23.344;2023-07-13T12:14:16;9.88;;;5.05;;
44204;SDS011;30163;42.698;23.344;2023-07-13T12:16:43;11.32;;;6.15;;
44204;SDS011;30163;42.698;23.344;2023-07-13T12:19:22;18.08;;;6.43;;
44204;SDS011;30163;42.698;23.344;2023-07-13T12:21:49;11.73;;;6.28;;
44204;SDS011;30163;42.698;23.344;2023-07-13T12:24:16;17.00;;;6.45;;
44204;SDS011;30163;42.698;23.344;2023-07-13T12:26:43;10.02;;;5.38;;
44204;SDS011;30163;42.698;23.344;2023-07-13T12:29:12;16.05;;;5.93;;
44204;SDS011;30163;42.698;23.344;2023-07-13T12:31:42;17.77;;;6.07;;
44204;SDS011;30163;42.698;23.344;2023-07-13T12:36:48;19.20;;;6.32;;
44204;SDS011;30163;42.698;23.344;2023-07-13T12:39:16;13.35;;;5.50;;
44204;SDS011;30163;42.698;23.344;2023-07-13T12:41:46;15.30;;;6.18;;
44204;SDS011;30163;42.698;23.344;2023-07-13T12:44:29;18.00;;;5.18;;
44204;SDS011;30163;42.698;23.344;2023-07-13T12:46:58;12.63;;;5.45;;
44204;SDS011;30163;42.698;23.344;2023-07-13T12:49:30;16.95;;;5.47;;
44204;SDS011;30163;42.698;23.344;2023-07-13T12:52:00;20.88;;;5.78;;
44204;SDS011;30163;42.698;23.344;2023-07-13T12:54:27;15.98;;;5.20;;
44204;SDS011;30163;42.698;23.344;2023-07-13T12:56:53;19.55;;;5.57;;
44204;SDS011;30163;42.698;23.344;2023-07-13T12:59:22;13.20;;;5.50;;
44204;SDS011;30163;42.698;23.344;2023-07-13T13:01:51;14.90;;;5.57;;
44204;SDS011;30163;42.698;23.344;2023-07-13T13:04:18;23.20;;;7.45;;
44204;SDS011;30163;42.698;23.344;2023-07-13T13:06:46;21.80;;;5.40;;
44204;SDS011;30163;42.698;23.344;2023-07-13T13:09:13;14.05;;;5.60;;
44204;SDS011;30163;42.698;23.344;2023-07-13T13:11:39;18.73;;;5.50;;
44204;SDS011;30163;42.698;23.344;2023-07-13T13:14:08;24.83;;;5.88;;
44204;SDS011;30163;42.698;23.344;2023-07-13T13:16:47;10.32;;;5.30;;
44204;SDS011;30163;42.698;23.344;2023-07-13T13:19:22;16.67;;;5.90;;
44204;SDS011;30163;42.698;23.344;2023-07-13T13:21:52;22.98;;;5.70;;
44204;SDS011;30163;42.698;23.344;2023-07-13T13:24:20;14.60;;;6.03;;
44204;SDS011;30163;42.698;23.344;2023-07-13T13:26:48;26.60;;;5.60;;
44204;SDS011;30163;42.698;23.344;2023-07-13T13:29:21;15.38;;;5.18;;
44204;SDS011;30163;42.698;23.344;2023-07-13T13:31:50;18.48;;;6.15;;
44204;SDS011;30163;42.698;23.344;2023-07-13T13:34:19;22.10;;;5.55;;
44204;SDS011;30163;42.698;23.344;2023-07-13T13:36:45;14.45;;;5.50;;
44204;SDS011;30163;42.698;23.344;2023-07-13T13:41:55;13.45;;;5.88;;
44204;SDS011;30163;42.698;23.344;2023-07-13T13:44:21;12.02;;;5.75;;
44204;SDS011;30163;42.698;23.344;2023-07-13T13:46:51;9.90;;;5.38;;
44204;SDS011;30163;42.698;23.344;2023-07-13T13:49:18;14.30;;;5.87;;
44204;SDS011;30163;42.698;23.344;2023-07-13T13:51:49;18.55;;;5.50;;
44204;SDS011;30163;42.698;23.344;2023-07-13T13:54:15;18.50;;;5.80;;
44204;SDS011;30163;42.698;23.344;2023-07-13T13:56:42;12.40;;;6.18;;
44204;SDS011;30163;42.698;23.344;2023-07-13T13:59:09;23.42;;;6.18;;
44204;SDS011;30163;42.698;23.344;2023-07-13T14:01:34;14.77;;;5.75;;
44204;SDS011;30163;42.698;23.344;2023-07-13T14:04:00;11.35;;;5.22;;
44204;SDS011;30163;42.698;23.344;2023-07-13T14:06:25;19.27;;;5.30;;
44204;SDS011;30163;42.698;23.344;2023-07-13T14:08:52;15.98;;;5.38;;
44204;SDS011;30163;42.698;23.344;2023-07-13T14:11:18;17.50;;;5.45;;
44204;SDS011;30163;42.698;23.344;2023-07-13T14:13:47;17.05;;;5.68;;
44204;SDS011;30163;42.698;23.344;2023-07-13T14:16:18;15.85;;;5.43;;
44204;SDS011;30163;42.698;23.344;2023-07-13T14:18:45;14.75;;;6.43;;
44204;SDS011;30163;42.698;23.344;2023-07-13T14:21:15;14.75;;;5.20;;
44204;SDS011;30163;42.698;23.344;2023-07-13T14:23:42;16.33;;;5.07;;
44204;SDS011;30163;42.698;23.344;2023-07-13T14:26:10;11.73;;;5.60;;
44204;SDS011;30163;42.698;23.344;2023-07-13T14:28:41;25.42;;;5.68;;
44204;SDS011;30163;42.698;23.344;2023-07-13T14:31:08;19.90;;;5.68;;
44204;SDS011;30163;42.698;23.344;2023-07-13T14:33:34;15.00;;;5.13;;
44204;SDS011;30163;42.698;23.344;2023-07-13T14:35:59;17.27;;;6.45;;
44204;SDS011;30163;42.698;23.344;2023-07-13T14:38:24;32.33;;;5.73;;
44204;SDS011;30163;42.698;23.344;2023-07-13T14:40:50;21.33;;;5.38;;
44204;SDS011;30163;42.698;23.344;2023-07-13T14:43:16;14.15;;;4.88;;
44204;SDS011;30163;42.698;23.344;2023-07-13T14:45:51;11.10;;;5.53;;
44204;SDS011;30163;42.698;23.344;2023-07-13T14:48:20;20.13;;;6.05;;
44204;SDS011;30163;42.698;23.344;2023-07-13T14:50:49;15.70;;;5.30;;